Time;durP1;ratioP1;P1;durP2;ratioP2;P2;SDS_P1;SDS_P2;PMS_P1;PMS_P2;Temp;Humidity;BMP_temperature;BMP_pressure;BME280_temperature;BME280_humidity;BME280_pressure;Samples;Min_cycle;Max_cycle;Signal;HPM_P1;HPM_P2
2021/12/27 00:01:51;;;;;;;7.82;7.25;;;4.90;99.90;;;;;;5059133;28;20186;-85
2021/12/27 00:04:19;;;;;;;7.80;7.20;;;4.70;99.90;;;;;;5034538;28;20226;-85
2021/12/27 00:06:45;;;;;;;7.90;7.30;;;4.60;99.90;;;;;;5057167;28;20205;-84
2021/12/27 00:09:11;;;;;;;8.07;7.27;;;4.60;99.90;;;;;;5047287;28;20564;-85
2021/12/27 00:11:36;;;;;;;7.27;6.70;;;4.60;99.90;;;;;;5058234;28;20210;-84
2021/12/27 00:14:05;;;;;;;8.37;7.50;;;4.70;99.90;;;;;;5038141;28;20186;-84
2021/12/27 00:16:30;;;;;;;7.10;6.47;;;4.70;99.90;;;;;;5023148;28;20224;-84
2021/12/27 00:18:56;;;;;;;6.67;6.17;;;4.70;99.90;;;;;;5046651;28;20574;-84
2021/12/27 00:21:22;;;;;;;6.67;6.07;;;4.80;99.90;;;;;;5046992;28;20190;-83
2021/12/27 00:23:48;;;;;;;6.60;6.10;;;4.70;99.90;;;;;;5027635;28;20223;-84
2021/12/27 00:26:13;;;;;;;6.60;6.10;;;4.80;99.90;;;;;;5046548;28;20213;-84
2021/12/27 00:28:39;;;;;;;6.55;6.05;;;4.90;99.90;;;;;;5046974;28;20241;-85
2021/12/27 00:31:05;;;;;;;6.40;5.97;;;4.90;99.90;;;;;;5055835;28;20603;-83
2021/12/27 00:33:31;;;;;;;7.50;6.93;;;4.90;99.90;;;;;;5048704;28;20187;-84
2021/12/27 00:35:57;;;;;;;6.60;6.20;;;5.00;99.90;;;;;;5052447;28;20195;-85
2021/12/27 00:38:24;;;;;;;7.43;6.85;;;5.00;99.90;;;;;;5049693;28;20210;-85
2021/12/27 00:40:50;;;;;;;7.40;6.77;;;5.00;99.90;;;;;;5046681;28;20195;-85
2021/12/27 00:43:16;;;;;;;7.53;7.03;;;5.80;99.90;;;;;;5048689;28;20566;-85
2021/12/27 00:45:44;;;;;;;7.23;6.63;;;;;;;;;;5050315;28;20191;-85
2021/12/27 00:48:11;;;;;;;6.30;5.90;;;5.20;99.90;;;;;;5027445;28;20430;-85
2021/12/27 00:50:38;;;;;;;6.45;6.05;;;5.30;99.90;;;;;;5039071;28;20187;-85
2021/12/27 00:53:04;;;;;;;5.80;5.50;;;5.30;99.90;;;;;;5048183;28;20215;-86
2021/12/27 00:55:30;;;;;;;7.43;6.93;;;5.10;99.90;;;;;;5048295;28;20599;-84
2021/12/27 00:57:56;;;;;;;6.07;5.67;;;5.30;99.90;;;;;;5048481;28;20245;-85
2021/12/27 01:00:27;;;;;;;5.23;5.03;;;5.60;99.90;;;;;;5036962;28;20245;-84
2021/12/27 01:02:53;;;;;;;7.18;6.47;;;5.50;99.90;;;;;;5047332;28;20187;-86
2021/12/27 01:05:20;;;;;;;6.47;5.97;;;5.40;99.90;;;;;;5054859;28;20725;-85
2021/12/27 01:07:46;;;;;;;5.78;5.50;;;6.70;99.90;;;;;;5044987;28;20227;-85
2021/12/27 01:13:03;;;;;;;6.35;5.95;;;5.50;99.90;;;;;;5056960;28;20215;-85
2021/12/27 01:18:07;;;;;;;6.90;6.40;;;5.50;99.90;;;;;;5033928;28;20191;-85
2021/12/27 01:20:35;;;;;;;6.60;6.30;;;5.50;99.90;;;;;;5045712;28;20210;-85
2021/12/27 01:23:04;;;;;;;6.53;6.05;;;5.50;99.90;;;;;;5044827;28;20229;-86
2021/12/27 01:25:30;;;;;;;5.55;5.25;;;5.50;99.90;;;;;;5027470;28;20949;-83
2021/12/27 01:27:56;;;;;;;6.20;5.70;;;5.50;99.90;;;;;;5043971;28;20207;-85
2021/12/27 01:30:22;;;;;;;6.97;6.37;;;5.50;99.90;;;;;;5045335;28;20422;-83
2021/12/27 01:32:54;;;;;;;6.65;6.25;;;5.70;99.90;;;;;;5039396;28;20619;-84
2021/12/27 01:35:21;;;;;;;5.45;5.18;;;5.50;99.90;;;;;;5041758;28;20552;-83
2021/12/27 01:37:51;;;;;;;6.03;5.63;;;6.70;99.90;;;;;;5044665;28;20194;-84
2021/12/27 01:40:21;;;;;;;7.60;6.90;;;5.60;99.90;;;;;;5045969;28;20187;-84
2021/12/27 01:43:24;;;;;;;6.32;5.95;;;5.60;99.90;;;;;;5040120;28;20289;-85
2021/12/27 01:46:01;;;;;;;6.45;6.15;;;5.60;99.90;;;;;;5004368;28;20276;-85
2021/12/27 01:48:31;;;;;;;6.53;6.13;;;5.60;99.90;;;;;;5022363;28;20191;-84
2021/12/27 01:51:02;;;;;;;6.05;5.55;;;5.60;99.90;;;;;;5048351;28;20282;-85
2021/12/27 01:53:39;;;;;;;6.45;6.00;;;6.10;99.90;;;;;;5044309;28;20199;-85
2021/12/27 01:56:08;;;;;;;6.22;5.82;;;5.60;99.90;;;;;;5035132;28;20194;-85
2021/12/27 01:58:37;;;;;;;7.07;6.57;;;5.60;99.90;;;;;;5049691;28;20260;-84
2021/12/27 02:01:05;;;;;;;7.32;6.55;;;5.70;99.90;;;;;;5056349;28;20552;-84
2021/12/27 02:03:32;;;;;;;6.45;6.15;;;5.70;99.90;;;;;;5049776;28;20201;-84
2021/12/27 02:06:00;;;;;;;6.25;5.78;;;5.90;99.90;;;;;;5035284;28;20186;-84
2021/12/27 02:08:28;;;;;;;6.70;6.25;;;5.50;99.90;;;;;;5050781;28;20193;-84
2021/12/27 02:10:54;;;;;;;6.75;6.25;;;5.60;99.90;;;;;;5041756;28;20187;-84
2021/12/27 02:13:44;;;;;;;6.60;6.07;;;5.60;99.90;;;;;;5043528;28;20230;-84
2021/12/27 02:16:21;;;;;;;5.93;5.55;;;5.60;99.90;;;;;;5044422;28;20512;-84
2021/12/27 02:18:48;;;;;;;6.45;6.05;;;5.40;99.90;;;;;;5046618;28;20683;-84
2021/12/27 02:21:14;;;;;;;6.10;5.65;;;6.40;99.90;;;;;;5045730;28;20187;-86
2021/12/27 02:23:41;;;;;;;6.95;6.50;;;5.50;99.90;;;;;;5047857;28;20312;-86
2021/12/27 02:26:11;;;;;;;6.70;6.25;;;5.60;99.90;;;;;;5026757;28;20831;-85
2021/12/27 02:28:37;;;;;;;6.93;6.43;;;5.60;99.90;;;;;;5048672;28;20200;-84
2021/12/27 02:31:04;;;;;;;7.30;6.60;;;5.50;99.90;;;;;;5044755;28;20669;-85
2021/12/27 02:33:30;;;;;;;7.38;6.75;;;5.60;99.90;;;;;;5043804;28;20253;-85
2021/12/27 02:35:58;;;;;;;5.83;5.50;;;5.50;99.90;;;;;;5026665;28;20615;-84
2021/12/27 02:38:32;;;;;;;7.03;6.30;;;5.50;99.90;;;;;;5044455;28;20325;-86
2021/12/27 02:41:00;;;;;;;6.28;5.88;;;4.90;99.90;;;;;;5037855;28;20273;-85
2021/12/27 02:43:28;;;;;;;7.15;6.47;;;5.40;99.90;;;;;;5018481;28;20869;-85
2021/12/27 02:45:58;;;;;;;6.97;6.35;;;5.80;99.90;;;;;;5044695;28;20664;-85
2021/12/27 02:48:28;;;;;;;7.28;6.70;;;5.60;99.90;;;;;;5044692;28;20782;-84
2021/12/27 02:50:56;;;;;;;6.40;6.03;;;5.50;99.90;;;;;;5044774;28;20711;-84
2021/12/27 02:53:24;;;;;;;7.00;6.50;;;6.00;99.90;;;;;;5025334;28;20219;-84
2021/12/27 02:55:54;;;;;;;5.97;5.65;;;5.60;99.90;;;;;;5051583;28;20187;-84
2021/12/27 02:58:20;;;;;;;6.28;5.93;;;6.10;99.90;;;;;;5037095;28;20472;-84
2021/12/27 03:00:50;;;;;;;6.82;6.43;;;5.90;99.90;;;;;;5049153;28;20172;-84
2021/12/27 03:03:18;;;;;;;5.80;5.40;;;5.90;99.90;;;;;;5038164;28;20661;-85
2021/12/27 03:05:46;;;;;;;6.50;5.97;;;5.90;99.90;;;;;;5030712;28;20190;-85
2021/12/27 03:08:15;;;;;;;6.32;6.03;;;6.60;99.90;;;;;;5025500;28;20200;-84
2021/12/27 03:10:43;;;;;;;7.13;6.63;;;5.80;99.90;;;;;;5035180;28;20183;-85
2021/12/27 03:13:22;;;;;;;5.55;5.25;;;5.70;99.90;;;;;;5046394;28;20266;-85
2021/12/27 03:16:00;;;;;;;7.18;6.78;;;5.80;99.90;;;;;;5051793;28;20213;-84
2021/12/27 03:18:29;;;;;;;5.82;5.45;;;5.80;99.90;;;;;;5046642;28;20239;-84
2021/12/27 03:20:56;;;;;;;5.68;5.43;;;6.00;99.90;;;;;;5046722;28;20191;-83
2021/12/27 03:23:24;;;;;;;5.65;5.35;;;6.40;99.90;;;;;;5050677;28;20219;-85
2021/12/27 03:25:52;;;;;;;6.57;6.00;;;5.60;99.90;;;;;;5029224;28;20195;-84
2021/12/27 03:28:18;;;;;;;6.38;5.97;;;5.90;99.90;;;;;;5046655;28;20191;-85
2021/12/27 03:30:46;;;;;;;6.70;6.30;;;5.80;99.90;;;;;;5055523;28;20577;-84
2021/12/27 03:33:14;;;;;;;7.93;7.32;;;5.40;99.90;;;;;;5048603;28;20397;-84
2021/12/27 03:35:51;;;;;;;6.95;6.45;;;5.90;99.90;;;;;;5049935;28;20191;-85
2021/12/27 03:38:20;;;;;;;7.55;5.80;;;5.90;99.90;;;;;;5053414;28;20199;-84
2021/12/27 03:40:52;;;;;;;6.10;5.80;;;6.00;99.90;;;;;;5045759;28;20194;-84
2021/12/27 03:43:19;;;;;;;7.10;6.63;;;5.90;99.90;;;;;;5039611;28;20256;-85
2021/12/27 03:45:45;;;;;;;7.40;6.57;;;5.90;99.90;;;;;;5035446;28;20194;-84
2021/12/27 03:48:12;;;;;;;7.65;7.10;;;7.10;99.90;;;;;;5050932;28;20216;-85
2021/12/27 03:50:40;;;;;;;7.78;7.30;;;5.80;99.90;;;;;;5056386;28;20183;-84
2021/12/27 03:53:10;;;;;;;8.05;7.40;;;5.90;99.90;;;;;;5045656;28;20272;-84
2021/12/27 03:55:37;;;;;;;10.15;9.15;;;7.40;99.90;;;;;;5048287;28;20508;-85
2021/12/27 03:58:10;;;;;;;9.95;8.13;;;5.80;99.90;;;;;;5045321;28;20278;-85
2021/12/27 04:00:47;;;;;;;8.43;7.72;;;5.70;99.90;;;;;;5044210;28;20222;-85
2021/12/27 04:03:16;;;;;;;8.18;7.43;;;5.80;99.90;;;;;;5032934;28;20290;-85
2021/12/27 04:05:48;;;;;;;8.20;7.60;;;6.00;99.90;;;;;;5027370;28;20180;-84
2021/12/27 04:08:21;;;;;;;7.20;6.55;;;6.00;99.90;;;;;;5041914;28;20195;-85
2021/12/27 04:10:48;;;;;;;8.32;7.63;;;5.80;99.90;;;;;;5041638;28;20188;-85
2021/12/27 04:13:21;;;;;;;8.10;7.40;;;5.60;99.90;;;;;;5049451;28;20217;-87
2021/12/27 04:15:51;;;;;;;9.40;8.60;;;5.80;99.90;;;;;;5055282;28;20195;-85
2021/12/27 04:18:17;;;;;;;7.20;6.75;;;5.90;99.90;;;;;;5048916;28;20217;-86
2021/12/27 04:20:45;;;;;;;7.32;6.72;;;6.00;99.90;;;;;;5030102;28;20233;-86
2021/12/27 04:23:10;;;;;;;7.53;7.05;;;7.00;99.90;;;;;;5029219;28;20241;-86
2021/12/27 04:25:36;;;;;;;7.23;6.83;;;5.80;99.90;;;;;;5030517;28;20251;-86
2021/12/27 04:28:07;;;;;;;7.35;6.75;;;5.90;99.90;;;;;;5044499;28;20206;-83
2021/12/27 04:30:33;;;;;;;7.50;7.00;;;5.90;99.90;;;;;;5050677;28;20183;-84
2021/12/27 04:33:08;;;;;;;7.63;6.78;;;5.90;99.90;;;;;;5046463;28;20215;-84
2021/12/27 04:35:37;;;;;;;7.00;6.60;;;5.90;99.90;;;;;;5048787;28;20183;-84
2021/12/27 04:38:03;;;;;;;8.38;7.57;;;5.80;99.90;;;;;;5037494;28;20285;-85
2021/12/27 04:40:34;;;;;;;10.67;9.13;;;5.90;99.90;;;;;;5041143;28;20211;-84
2021/12/27 04:43:08;;;;;;;9.35;8.55;;;5.90;99.90;;;;;;5046633;28;20430;-83
2021/12/27 04:45:34;;;;;;;10.38;8.27;;;5.90;99.90;;;;;;5033861;28;20195;-84
2021/12/27 04:48:02;;;;;;;7.72;7.13;;;5.80;99.90;;;;;;5044210;28;20194;-83
2021/12/27 04:50:28;;;;;;;8.95;8.25;;;5.80;99.90;;;;;;5046960;28;20202;-84
2021/12/27 04:52:54;;;;;;;8.27;7.35;;;5.80;99.90;;;;;;5027555;28;20305;-85
2021/12/27 04:55:25;;;;;;;9.17;8.40;;;5.80;99.90;;;;;;5036671;28;20539;-84
2021/12/27 04:57:52;;;;;;;8.45;7.65;;;5.80;99.90;;;;;;5044365;28;20939;-85
2021/12/27 05:00:18;;;;;;;8.70;7.97;;;7.10;99.90;;;;;;5029359;28;20198;-86
2021/12/27 05:02:45;;;;;;;8.77;6.85;;;5.60;99.90;;;;;;5024158;28;20199;-86
2021/12/27 05:05:11;;;;;;;7.43;6.97;;;5.70;99.90;;;;;;5029634;28;20258;-86
2021/12/27 05:07:38;;;;;;;7.40;6.80;;;5.70;99.90;;;;;;5029219;28;20223;-85
2021/12/27 05:10:08;;;;;;;8.05;7.38;;;5.90;99.90;;;;;;5026822;28;20179;-86
2021/12/27 05:12:33;;;;;;;8.45;7.75;;;5.80;99.90;;;;;;5041165;28;20223;-85
2021/12/27 05:14:59;;;;;;;7.57;6.90;;;5.80;99.90;;;;;;5045425;28;20191;-85
2021/12/27 05:17:25;;;;;;;7.00;6.50;;;6.50;99.90;;;;;;5035448;28;20271;-85
2021/12/27 05:19:51;;;;;;;8.70;8.00;;;5.80;99.90;;;;;;5037893;28;20193;-85
2021/12/27 05:22:21;;;;;;;5.93;5.53;;;6.40;99.90;;;;;;5044294;28;20233;-85
2021/12/27 05:24:47;;;;;;;7.43;6.75;;;5.90;99.90;;;;;;5046415;28;20233;-85
2021/12/27 05:27:17;;;;;;;5.90;5.70;;;6.40;99.90;;;;;;5044710;28;20202;-84
2021/12/27 05:29:43;;;;;;;6.45;6.05;;;6.00;99.90;;;;;;5030183;28;20183;-84
2021/12/27 05:32:10;;;;;;;7.90;7.30;;;6.00;99.90;;;;;;5033632;28;20707;-85
2021/12/27 05:34:36;;;;;;;8.77;8.07;;;6.00;99.90;;;;;;5034496;28;20345;-84
2021/12/27 05:37:02;;;;;;;8.77;8.05;;;6.00;99.90;;;;;;5032292;28;20191;-85
2021/12/27 05:39:27;;;;;;;8.40;7.77;;;6.10;99.90;;;;;;5028140;28;20190;-84
2021/12/27 05:41:53;;;;;;;10.23;8.23;;;5.90;99.90;;;;;;5044101;28;20517;-84
2021/12/27 05:44:22;;;;;;;7.88;7.18;;;6.20;99.90;;;;;;5043974;28;20203;-85
2021/12/27 05:46:48;;;;;;;7.60;7.00;;;6.10;99.90;;;;;;5028090;28;20194;-85
2021/12/27 05:49:16;;;;;;;7.13;6.63;;;6.60;99.90;;;;;;5049724;28;20222;-84
2021/12/27 05:51:43;;;;;;;6.70;6.13;;;6.20;99.90;;;;;;5034451;28;20273;-85
2021/12/27 05:54:14;;;;;;;6.82;6.30;;;6.20;99.90;;;;;;5042797;28;20191;-85
2021/12/27 05:56:46;;;;;;;6.40;5.90;;;6.10;99.90;;;;;;5045775;28;20282;-85
2021/12/27 05:59:17;;;;;;;7.60;6.90;;;6.30;99.90;;;;;;5031993;28;20190;-85
2021/12/27 06:01:45;;;;;;;7.15;6.55;;;6.20;99.90;;;;;;5032091;28;20270;-85
2021/12/27 06:04:15;;;;;;;7.35;6.70;;;6.10;99.90;;;;;;5049343;28;20542;-86
2021/12/27 06:06:42;;;;;;;7.72;7.13;;;6.00;99.90;;;;;;5048321;28;20576;-86
2021/12/27 06:09:10;;;;;;;7.82;7.13;;;6.10;99.90;;;;;;5037350;28;20198;-86
2021/12/27 06:11:37;;;;;;;7.47;6.88;;;6.20;99.90;;;;;;5055680;28;20183;-86
2021/12/27 06:14:02;;;;;;;7.07;6.57;;;6.00;99.90;;;;;;5043136;28;20195;-85
2021/12/27 06:16:28;;;;;;;6.20;5.73;;;6.10;99.90;;;;;;5028436;28;20183;-85
2021/12/27 06:18:54;;;;;;;8.80;8.10;;;6.00;99.90;;;;;;5028451;28;20207;-86
2021/12/27 06:21:21;;;;;;;7.33;6.87;;;;;;;;;;5037669;28;20452;-86
2021/12/27 06:23:47;;;;;;;9.88;8.95;;;5.90;99.90;;;;;;5022715;28;20984;-86
2021/12/27 06:26:13;;;;;;;7.60;7.10;;;6.00;99.90;;;;;;5049657;28;20273;-85
2021/12/27 06:28:39;;;;;;;7.05;6.45;;;6.00;99.90;;;;;;5068426;28;20190;-85
2021/12/27 06:31:05;;;;;;;6.47;5.90;;;5.90;99.90;;;;;;5052367;28;20187;-84
2021/12/27 06:33:32;;;;;;;7.27;6.70;;;5.80;99.90;;;;;;4339644;28;10000734;-85
2021/12/27 06:35:59;;;;;;;7.80;7.18;;;5.80;99.90;;;;;;5054833;28;20693;-84
2021/12/27 06:38:26;;;;;;;8.60;6.82;;;5.80;99.90;;;;;;5086375;22;20255;-86
2021/12/27 06:40:52;;;;;;;6.88;6.10;;;5.80;99.90;;;;;;5014794;28;20279;-86
2021/12/27 06:43:20;;;;;;;7.18;6.63;;;5.80;99.90;;;;;;5023674;28;20195;-86
2021/12/27 06:45:52;;;;;;;7.43;6.72;;;6.00;99.90;;;;;;5002670;28;20253;-85
2021/12/27 06:48:20;;;;;;;8.13;7.10;;;5.80;99.90;;;;;;5020882;28;20234;-85
2021/12/27 06:50:47;;;;;;;7.95;7.30;;;5.80;99.90;;;;;;5006213;28;20192;-85
2021/12/27 06:53:13;;;;;;;8.25;7.40;;;5.70;99.90;;;;;;5026273;28;20314;-84
2021/12/27 06:55:39;;;;;;;9.00;8.30;;;5.80;99.90;;;;;;5005603;28;20597;-85
2021/12/27 06:58:08;;;;;;;7.77;7.13;;;5.80;99.90;;;;;;5007039;28;20446;-86
2021/12/27 07:00:34;;;;;;;6.93;6.43;;;5.80;99.90;;;;;;5007348;28;20543;-84
2021/12/27 07:02:59;;;;;;;7.32;6.63;;;5.80;99.90;;;;;;5004633;28;20205;-84
2021/12/27 07:05:27;;;;;;;6.78;6.32;;;5.90;99.90;;;;;;5024872;28;20188;-86
2021/12/27 07:08:18;;;;;;;5.40;5.10;;;6.20;99.90;;;;;;5015300;28;20200;-86
2021/12/27 07:10:44;;;;;;;5.25;4.85;;;6.20;99.90;;;;;;5002506;28;20233;-85
2021/12/27 07:13:13;;;;;;;5.47;5.20;;;6.30;99.90;;;;;;5007420;28;20269;-85
2021/12/27 07:15:44;;;;;;;4.85;4.55;;;6.20;99.90;;;;;;5005025;28;20183;-85
2021/12/27 07:18:11;;;;;;;4.85;4.53;;;6.80;99.90;;;;;;5027218;28;20238;-85
2021/12/27 07:20:38;;;;;;;5.32;5.03;;;7.70;99.90;;;;;;5003167;28;20192;-86
2021/12/27 07:23:06;;;;;;;5.68;5.00;;;6.50;99.90;;;;;;5006109;28;20191;-86
2021/12/27 07:25:33;;;;;;;6.47;6.07;;;6.50;99.90;;;;;;5017398;28;20292;-86
2021/12/27 07:27:59;;;;;;;6.80;6.38;;;6.40;99.90;;;;;;5026765;28;20557;-85
2021/12/27 07:30:26;;;;;;;6.63;6.10;;;6.30;99.90;;;;;;5001154;28;20195;-86
2021/12/27 07:33:00;;;;;;;5.60;5.30;;;6.30;99.90;;;;;;5026632;28;20222;-86
2021/12/27 07:35:26;;;;;;;5.63;5.25;;;7.00;99.90;;;;;;5002529;28;20302;-81
2021/12/27 07:37:53;;;;;;;7.63;6.93;;;6.40;99.90;;;;;;5006483;28;20270;-85
2021/12/27 07:40:22;;;;;;;7.10;6.60;;;6.80;99.90;;;;;;5003028;28;20986;-85
2021/12/27 07:42:49;;;;;;;7.25;6.85;;;6.30;99.90;;;;;;5001509;28;20189;-85
2021/12/27 07:45:15;;;;;;;7.28;6.57;;;6.20;99.90;;;;;;4998741;28;20189;-86
2021/12/27 07:47:42;;;;;;;6.03;5.63;;;;;;;;;;5022963;28;20261;-85
2021/12/27 07:50:11;;;;;;;5.72;5.32;;;;;;;;;;5014808;28;20692;-85
2021/12/27 07:52:38;;;;;;;5.82;5.53;;;;;;;;;;5005373;28;20216;-85
2021/12/27 07:55:05;;;;;;;6.15;5.45;;;6.50;99.90;;;;;;4991876;28;20904;-86
2021/12/27 07:57:31;;;;;;;6.50;6.10;;;;;;;;;;4992622;28;20184;-86
2021/12/27 07:59:57;;;;;;;6.93;6.18;;;6.40;99.90;;;;;;4999367;28;20192;-85
2021/12/27 08:02:25;;;;;;;6.23;5.83;;;;;;;;;;4993898;28;20681;-85
2021/12/27 08:04:59;;;;;;;6.70;6.28;;;;;;;;;;5014527;28;20430;-85
2021/12/27 08:07:30;;;;;;;5.38;5.13;;;;;;;;;;4996709;28;20298;-85
2021/12/27 08:10:21;;;;;;;5.68;5.30;;;;;;;;;;4995888;28;20292;-85
2021/12/27 08:12:48;;;;;;;6.30;5.90;;;;;;;;;;4991305;28;20316;-86
2021/12/27 08:15:15;;;;;;;5.40;5.20;;;;;;;;;;4993036;28;20231;-85
2021/12/27 08:17:48;;;;;;;5.03;4.72;;;;;;;;;;5014548;28;20191;-85
2021/12/27 08:20:15;;;;;;;5.85;5.45;;;;;;;;;;4993257;28;20291;-85
2021/12/27 08:22:43;;;;;;;5.55;5.05;;;;;;;;;;4996652;28;20196;-86
2021/12/27 08:25:10;;;;;;;5.70;5.40;;;;;;;;;;4651975;28;9999658;-85
2021/12/27 08:27:39;;;;;;;5.78;5.47;;;;;;;;;;5005521;28;20204;-86
2021/12/27 08:30:07;;;;;;;5.38;5.15;;;;;;;;;;4994106;28;20199;-86
2021/12/27 08:32:35;;;;;;;5.82;5.43;;;;;;;;;;5009521;28;20220;-85
2021/12/27 08:35:02;;;;;;;6.35;5.95;;;;;;;;;;5015799;28;20196;-85
2021/12/27 08:37:34;;;;;;;6.82;6.35;;;;;;;;;;4977782;28;20296;-85
2021/12/27 08:40:01;;;;;;;7.43;6.68;;;;;;;;;;5000938;28;20230;-85
2021/12/27 08:42:29;;;;;;;6.00;5.70;;;;;;;;;;5015882;28;20227;-87
2021/12/27 08:44:55;;;;;;;6.90;6.30;;;;;;;;;;5010872;28;20192;-84
2021/12/27 08:47:22;;;;;;;5.50;5.15;;;;;;;;;;5017281;28;20184;-85
2021/12/27 08:49:49;;;;;;;5.90;5.50;;;;;;;;;;5012023;28;20196;-85
2021/12/27 08:52:16;;;;;;;6.22;5.82;;;;;;;;;;5023217;28;20216;-85
2021/12/27 08:54:43;;;;;;;7.32;5.93;;;;;;;;;;5010506;28;20603;-84
2021/12/27 08:57:10;;;;;;;5.95;5.45;;;;;;;;;;5001346;28;20195;-85
2021/12/27 08:59:37;;;;;;;6.93;6.30;;;;;;;;;;5027344;28;20172;-84
2021/12/27 09:02:06;;;;;;;6.88;6.15;;;;;;;;;;5006356;28;20196;-85
2021/12/27 09:04:34;;;;;;;5.80;5.40;;;;;;;;;;5007190;28;20276;-85
2021/12/27 09:07:01;;;;;;;5.03;4.70;;;;;;;;;;4993432;28;20197;-85
2021/12/27 09:09:27;;;;;;;6.40;5.90;;;;;;;;;;5009173;28;20436;-81
2021/12/27 09:11:54;;;;;;;5.22;4.93;;;;;;;;;;5027705;28;20203;-84
2021/12/27 09:14:22;;;;;;;5.72;5.32;;;;;;;;;;5027441;28;20664;-86
2021/12/27 09:17:10;;;;;;;6.80;6.30;;;;;;;;;;5025774;28;20172;-85
2021/12/27 09:19:39;;;;;;;4.65;4.43;;;;;;;;;;5010930;28;20184;-85
2021/12/27 09:22:06;;;;;;;5.40;5.00;;;7.50;99.90;;;;;;5000351;28;20258;-85
2021/12/27 09:24:33;;;;;;;7.10;5.50;;;7.70;99.90;;;;;;5008229;28;20255;-86
2021/12/27 09:26:59;;;;;;;5.28;4.78;;;7.70;99.90;;;;;;5013298;28;20682;-85
2021/12/27 09:29:25;;;;;;;5.80;5.50;;;8.10;99.90;;;;;;5028320;28;20180;-84
2021/12/27 09:31:54;;;;;;;5.35;5.10;;;8.00;99.90;;;;;;5022768;28;20199;-86
2021/12/27 09:34:22;;;;;;;5.07;4.67;;;8.70;99.90;;;;;;4991278;28;20349;-84
2021/12/27 09:36:50;;;;;;;4.30;4.20;;;8.50;99.90;;;;;;5003172;28;20506;-83
2021/12/27 09:39:17;;;;;;;4.47;4.27;;;9.10;99.90;;;;;;5005773;28;20467;-86
2021/12/27 09:41:47;;;;;;;3.83;3.73;;;;;;;;;;5007949;28;20435;-86
2021/12/27 09:44:16;;;;;;;3.70;3.60;;;;;;;;;;5020949;28;20474;-86
2021/12/27 09:46:46;;;;;;;3.93;3.80;;;;;;;;;;5005986;28;20420;-82
2021/12/27 09:49:18;;;;;;;3.10;3.03;;;;;;;;;;5007482;28;20424;-84
2021/12/27 09:51:45;;;;;;;3.03;3.03;;;;;;;;;;5006306;28;20977;-85
2021/12/27 09:54:17;;;;;;;3.63;3.53;;;12.80;99.90;;;;;;5028173;28;20557;-83
2021/12/27 09:56:46;;;;;;;3.13;3.13;;;13.80;99.90;;;;;;5025900;28;20978;-86
2021/12/27 09:59:20;;;;;;;3.23;3.13;;;13.90;99.90;;;;;;5021041;28;20427;-85
2021/12/27 10:01:55;;;;;;;3.07;2.97;;;15.30;99.90;;;;;;5016741;28;20434;-86
2021/12/27 10:04:21;;;;;;;3.60;3.30;;;12.30;99.90;;;;;;5008497;28;20430;-86
2021/12/27 10:06:47;;;;;;;2.50;2.50;;;12.80;99.90;;;;;;4995983;28;20953;-85
2021/12/27 10:09:13;;;;;;;4.00;3.90;;;12.60;99.90;;;;;;4997877;28;20439;-86
2021/12/27 10:11:42;;;;;;;3.03;2.93;;;12.70;99.90;;;;;;5014169;28;20424;-84
2021/12/27 10:14:23;;;;;;;2.23;2.23;;;11.90;99.90;;;;;;5025198;28;20558;-86
2021/12/27 10:17:19;;;;;;;2.93;2.83;;;11.70;99.90;;;;;;5014631;28;20439;-86
2021/12/27 10:19:45;;;;;;;3.40;3.30;;;11.60;99.90;;;;;;5010554;28;20458;-84
2021/12/27 10:22:13;;;;;;;2.57;2.57;;;11.20;99.90;;;;;;5006799;28;20970;-86
2021/12/27 10:24:39;;;;;;;2.77;2.67;;;11.90;99.90;;;;;;5017275;28;20420;-85
2021/12/27 10:27:09;;;;;;;3.23;3.17;;;14.20;99.90;;;;;;4994471;28;20439;-86
2021/12/27 10:29:38;;;;;;;3.20;3.00;;;11.90;99.90;;;;;;5027376;28;20423;-84
2021/12/27 10:32:18;;;;;;;2.93;2.83;;;11.70;99.90;;;;;;5007859;28;20488;-85
2021/12/27 10:34:52;;;;;;;2.73;2.63;;;12.30;99.90;;;;;;4999357;28;20790;-85
2021/12/27 10:37:26;;;;;;;3.80;3.70;;;11.60;99.90;;;;;;5017908;28;20445;-85
2021/12/27 10:40:06;;;;;;;3.47;2.63;;;11.90;99.90;;;;;;5010575;28;20540;-85
2021/12/27 10:42:42;;;;;;;2.57;2.57;;;13.40;99.90;;;;;;5012022;28;20506;-85
2021/12/27 10:45:19;;;;;;;1.53;1.53;;;12.30;99.90;;;;;;5014872;28;20467;-85
2021/12/27 10:47:54;;;;;;;2.10;2.10;;;13.30;99.90;;;;;;5023944;28;20503;-85
2021/12/27 10:50:28;;;;;;;2.53;2.53;;;13.30;99.90;;;;;;5005652;28;20430;-84
2021/12/27 10:53:09;;;;;;;1.90;1.90;;;12.70;99.90;;;;;;5016328;28;21156;-86
2021/12/27 10:55:40;;;;;;;2.17;2.17;;;13.00;99.90;;;;;;4321715;28;10000757;-84
2021/12/27 10:58:18;;;;;;;1.50;1.50;;;12.80;99.90;;;;;;5013130;28;20184;-86
2021/12/27 11:00:55;;;;;;;1.97;1.97;;;12.80;99.90;;;;;;4992470;28;21219;-88
2021/12/27 11:03:38;;;;;;;1.97;1.97;;;13.00;99.90;;;;;;4996843;28;20454;-87
2021/12/27 11:06:19;;;;;;;2.57;2.47;;;12.50;99.90;;;;;;4989275;28;20442;-87
2021/12/27 11:09:06;;;;;;;1.53;1.53;;;13.30;99.90;;;;;;5017652;28;20421;-88
2021/12/27 11:11:34;;;;;;;2.00;2.00;;;13.20;99.90;;;;;;5002722;28;20511;-87
2021/12/27 11:14:03;;;;;;;1.70;1.70;;;13.20;99.90;;;;;;5023149;28;20482;-86
2021/12/27 11:16:33;;;;;;;2.77;2.77;;;13.60;99.90;;;;;;5017663;28;20430;-88
2021/12/27 11:19:06;;;;;;;2.90;2.80;;;13.80;99.90;;;;;;5013957;28;20443;-86
2021/12/27 11:21:35;;;;;;;2.80;2.70;;;13.60;99.90;;;;;;5032016;28;20430;-87
2021/12/27 11:24:05;;;;;;;2.33;2.33;;;14.10;99.90;;;;;;5014315;28;20430;-86
2021/12/27 11:26:34;;;;;;;2.67;2.67;;;14.10;99.90;;;;;;5028207;28;20429;-83
2021/12/27 11:29:21;;;;;;;2.80;2.70;;;;;;;;;;5016487;28;20422;-86
2021/12/27 11:31:51;;;;;;;2.50;2.50;;;15.00;99.90;;;;;;5034341;28;20791;-83
2021/12/27 11:34:23;;;;;;;2.33;2.33;;;;;;;;;;5002750;28;20478;-86
2021/12/27 11:36:53;;;;;;;2.27;2.27;;;15.90;99.90;;;;;;5020972;28;20431;-85
2021/12/27 11:39:38;;;;;;;2.57;2.57;;;16.80;99.90;;;;;;5005294;28;20494;-84
2021/12/27 11:42:11;;;;;;;2.20;2.20;;;15.80;99.90;;;;;;5018993;28;20446;-86
2021/12/27 11:44:48;;;;;;;2.03;2.03;;;16.90;99.90;;;;;;5018029;28;21010;-85
2021/12/27 11:50:19;;;;;;;1.50;1.50;;;17.30;99.90;;;;;;4986681;28;20441;-86
2021/12/27 11:52:49;;;;;;;2.13;2.13;;;17.10;99.90;;;;;;5013667;28;20511;-85
2021/12/27 11:55:37;;;;;;;1.87;1.77;;;17.20;99.90;;;;;;5001070;28;20534;-86
2021/12/27 11:58:06;;;;;;;1.70;1.70;;;17.50;99.90;;;;;;4988182;28;20466;-85
2021/12/27 12:00:38;;;;;;;2.20;2.10;;;16.50;99.90;;;;;;5001860;28;20446;-85
2021/12/27 12:03:58;;;;;;;1.83;1.73;;;17.20;99.90;;;;;;5017879;28;20539;-84
2021/12/27 12:06:48;;;;;;;2.20;2.20;;;16.30;99.90;;;;;;4986251;28;20543;-84
2021/12/27 12:09:21;;;;;;;1.53;1.53;;;15.80;99.90;;;;;;5021172;28;20462;-85
2021/12/27 12:12:10;;;;;;;1.90;1.90;;;14.80;99.90;;;;;;5016736;28;20951;-84
2021/12/27 12:14:39;;;;;;;1.70;1.70;;;13.40;99.90;;;;;;5013777;28;20992;-84
2021/12/27 12:17:07;;;;;;;2.30;2.10;;;14.40;99.90;;;;;;5016778;28;20430;-83
2021/12/27 12:19:42;;;;;;;2.30;2.30;;;13.50;99.90;;;;;;4999519;28;20530;-85
2021/12/27 12:22:30;;;;;;;1.37;1.37;;;12.00;99.90;;;;;;4649411;28;9999946;-85
2021/12/27 12:25:24;;;;;;;1.53;1.53;;;12.40;99.90;;;;;;5011315;28;20201;-85
2021/12/27 12:28:00;;;;;;;1.97;1.97;;;12.70;99.90;;;;;;5007689;28;20448;-85
2021/12/27 12:30:34;;;;;;;1.47;1.47;;;14.40;99.90;;;;;;5022163;28;20427;-86
2021/12/27 12:33:04;;;;;;;2.00;2.00;;;12.60;99.90;;;;;;5016920;28;20473;-84
2021/12/27 12:36:04;;;;;;;1.40;1.40;;;12.90;99.90;;;;;;4999693;28;20438;-85
2021/12/27 12:38:39;;;;;;;2.60;2.50;;;14.50;99.90;;;;;;5003093;28;20841;-84
2021/12/27 12:41:10;;;;;;;2.30;2.23;;;14.10;99.90;;;;;;5008773;28;20465;-85
2021/12/27 12:44:02;;;;;;;1.80;1.80;;;15.10;99.90;;;;;;5010070;28;21078;-86
2021/12/27 12:46:52;;;;;;;;;;;;;;;;;;;;;
2021/12/27 12:49:34;;;;;;;1.50;1.50;;;14.60;99.90;;;;;;5004932;28;20467;-85
2021/12/27 12:52:05;;;;;;;1.80;1.80;;;13.70;99.90;;;;;;5021098;28;20882;-86
2021/12/27 12:54:34;;;;;;;1.60;1.60;;;12.70;99.90;;;;;;5131431;22;20479;-85
2021/12/27 12:57:05;;;;;;;1.30;1.30;;;12.10;99.90;;;;;;5001558;28;20620;-86
2021/12/27 12:59:36;;;;;;;1.90;1.80;;;12.40;99.90;;;;;;5013687;28;20459;-84
2021/12/27 13:02:25;;;;;;;1.50;1.50;;;12.40;99.90;;;;;;5002274;28;21167;-84
2021/12/27 13:05:00;;;;;;;1.70;1.70;;;11.80;99.90;;;;;;5002768;28;20450;-87
2021/12/27 13:07:54;;;;;;;1.50;1.40;;;11.80;99.90;;;;;;4999696;28;20774;-87
2021/12/27 13:10:35;;;;;;;1.63;1.63;;;11.70;99.90;;;;;;4996064;28;20443;-87
2021/12/27 13:13:15;;;;;;;2.00;1.90;;;11.80;99.90;;;;;;5005154;28;20698;-85
2021/12/27 13:16:00;;;;;;;1.53;1.53;;;12.70;99.90;;;;;;4992262;28;20463;-85
2021/12/27 13:18:29;;;;;;;1.70;1.70;;;11.50;99.90;;;;;;5020190;28;20454;-85
2021/12/27 13:21:06;;;;;;;1.73;1.63;;;10.90;99.90;;;;;;5000900;28;20524;-84
2021/12/27 13:23:39;;;;;;;2.23;2.23;;;11.00;99.90;;;;;;4996461;28;20935;-86
2021/12/27 13:26:08;;;;;;;2.03;2.03;;;12.20;99.90;;;;;;5015134;28;20497;-84
2021/12/27 13:28:42;;;;;;;1.73;1.73;;;10.70;99.90;;;;;;5020341;28;20431;-83
2021/12/27 13:31:25;;;;;;;2.00;2.00;;;10.80;99.90;;;;;;5003676;28;21217;-86
2021/12/27 13:33:56;;;;;;;2.28;2.28;;;10.80;99.90;;;;;;5030720;28;20431;-86